createdAt,value
2022-08-14T00:00:43.905Z,73.65
2022-08-14T00:01:54.887Z,73.83
2022-08-14T00:02:44.041Z,73.74
2022-08-14T00:03:43.783Z,73.61
2022-08-14T00:04:45.050Z,73.83
2022-08-14T00:05:44.413Z,73.70
2022-08-14T00:06:43.655Z,73.74
2022-08-14T00:07:43.618Z,73.70
2022-08-14T00:08:44.835Z,73.65
2022-08-14T00:10:02.578Z,73.83
2022-08-14T00:10:51.544Z,74.08
2022-08-14T00:11:43.529Z,74.27
2022-08-14T00:12:43.429Z,74.51
2022-08-14T00:13:43.363Z,74.89
2022-08-14T00:14:43.344Z,75.04
2022-08-14T00:15:44.623Z,75.23
2022-08-14T00:16:45.164Z,75.62
2022-08-14T00:17:48.197Z,76.10
2022-08-14T00:19:06.017Z,76.10
2022-08-14T00:19:43.116Z,75.52
2022-08-14T00:20:43.368Z,75.43
2022-08-14T00:21:43.028Z,75.52
2022-08-14T00:22:57.119Z,75.14
2022-08-14T00:23:42.967Z,75.90
2022-08-14T00:24:42.908Z,75.52
2022-08-14T00:25:42.966Z,75.14
2022-08-14T00:26:42.822Z,76.10
2022-08-14T00:27:42.782Z,76.14
2022-08-14T00:28:42.742Z,75.33
2022-08-14T00:29:43.026Z,76.00
2022-08-14T00:30:42.829Z,75.62
2022-08-14T00:31:45.714Z,76.00
2022-08-14T00:32:53.211Z,76.00
2022-08-14T00:33:52.532Z,75.43
2022-08-14T00:34:46.337Z,75.62
2022-08-14T00:36:34.066Z,75.43
2022-08-14T00:36:49.186Z,75.71
2022-08-14T00:37:42.365Z,75.52
2022-08-14T00:38:42.321Z,75.14
2022-08-14T00:39:42.620Z,75.52
2022-08-14T00:40:46.122Z,75.62
2022-08-14T00:41:42.448Z,75.23
2022-08-14T00:42:54.894Z,75.39
2022-08-14T00:43:43.201Z,75.48
2022-08-14T00:44:42.700Z,75.77
2022-08-14T00:45:42.029Z,76.15
2022-08-14T00:46:41.988Z,76.44
2022-08-14T00:47:43.275Z,76.25
2022-08-14T00:48:41.903Z,76.64
2022-08-14T00:49:43.090Z,76.44
2022-08-14T00:50:41.818Z,76.82
2022-08-14T00:51:41.780Z,76.92
2022-08-14T00:52:41.734Z,77.40
2022-08-14T00:53:43.118Z,77.02
2022-08-14T00:54:41.663Z,77.21
2022-08-14T00:55:41.609Z,77.69
2022-08-14T00:56:41.562Z,77.69
2022-08-14T00:57:41.525Z,77.21
2022-08-14T00:58:45.272Z,77.69
2022-08-14T00:59:41.490Z,77.40
2022-08-14T01:00:47.630Z,77.88
2022-08-14T01:01:41.455Z,77.69
2022-08-14T01:02:41.317Z,77.69
2022-08-14T01:03:42.278Z,77.97
2022-08-14T01:04:53.687Z,78.07
2022-08-14T01:05:41.748Z,79.03
2022-08-14T01:06:41.145Z,78.27
2022-08-14T01:07:50.394Z,78.93
2022-08-14T01:08:57.414Z,78.45
2022-08-14T01:09:41.019Z,78.55
2022-08-14T01:10:41.010Z,78.74
2022-08-14T01:11:40.935Z,79.03
2022-08-14T01:12:40.902Z,79.03
2022-08-14T01:13:42.899Z,79.41
2022-08-14T01:14:40.899Z,79.41
2022-08-14T01:15:57.809Z,79.22
2022-08-14T01:16:40.834Z,78.64
2022-08-14T01:17:45.337Z,78.84
2022-08-14T01:18:40.642Z,78.93
2022-08-14T01:19:41.262Z,78.64
2022-08-14T01:20:41.114Z,78.55
2022-08-14T01:21:46.988Z,79.03
2022-08-14T01:22:40.570Z,79.03
2022-08-14T01:23:46.463Z,78.84
2022-08-14T01:24:40.392Z,78.93
2022-08-14T01:25:40.347Z,79.32
2022-08-14T01:26:40.310Z,79.60
2022-08-14T01:27:56.658Z,79.60
2022-08-14T01:28:57.006Z,79.22
2022-08-14T01:29:58.860Z,78.93
2022-08-14T01:30:40.156Z,79.32
2022-08-14T01:31:40.097Z,79.03
2022-08-14T01:32:42.833Z,79.03
2022-08-14T01:34:07.429Z,78.80
2022-08-14T01:35:21.220Z,78.55
2022-08-14T01:36:05.700Z,78.89
2022-08-14T01:36:39.902Z,79.18
2022-08-14T01:37:44.225Z,78.89
2022-08-14T01:38:39.803Z,79.37
2022-08-14T01:39:39.818Z,79.47
2022-08-14T01:40:41.946Z,79.57
2022-08-14T01:41:39.680Z,79.18
2022-08-14T01:42:39.631Z,79.75
2022-08-14T01:43:39.590Z,79.75
2022-08-14T01:44:41.195Z,79.57
2022-08-14T01:45:40.197Z,79.95
2022-08-14T01:46:39.462Z,79.95
2022-08-14T01:47:39.420Z,80.43
2022-08-14T01:48:39.380Z,81.38
2022-08-14T01:49:40.507Z,81.00
2022-08-14T01:50:39.312Z,80.71
2022-08-14T01:51:39.254Z,80.52
2022-08-14T01:52:58.803Z,80.43
2022-08-14T01:53:39.168Z,80.33
2022-08-14T01:54:39.126Z,80.43
2022-08-14T01:55:39.084Z,81.20
2022-08-14T01:56:39.511Z,81.86
2022-08-14T01:58:00.510Z,81.96
2022-08-14T01:58:57.433Z,82.15
2022-08-14T01:59:38.918Z,82.06
2022-08-14T02:00:38.893Z,81.48
2022-08-14T02:01:41.831Z,81.20
2022-08-14T02:02:38.787Z,80.52
2022-08-14T02:03:40.122Z,80.52
2022-08-14T02:04:54.754Z,80.81
2022-08-14T02:05:39.017Z,80.48
2022-08-14T02:06:38.620Z,80.48
2022-08-14T02:07:55.742Z,80.87
2022-08-14T02:08:52.679Z,81.15
2022-08-14T02:09:38.494Z,81.34
2022-08-14T02:10:46.839Z,81.54
2022-08-14T02:11:38.408Z,81.73
2022-08-14T02:12:38.364Z,82.01
2022-08-14T02:13:38.323Z,82.20
2022-08-14T02:14:38.286Z,82.68
2022-08-14T02:15:38.240Z,82.78
2022-08-14T02:16:38.209Z,83.45
2022-08-14T02:17:38.153Z,83.45
2022-08-14T02:18:38.122Z,83.54
2022-08-14T02:19:38.069Z,83.16
2022-08-14T02:20:38.025Z,82.59
2022-08-14T02:21:43.378Z,82.20
2022-08-14T02:22:47.679Z,81.82
2022-08-14T02:23:37.899Z,81.54
2022-08-14T02:24:39.827Z,81.05
2022-08-14T02:25:37.815Z,81.44
2022-08-14T02:26:58.399Z,81.34
2022-08-14T02:28:23.040Z,81.25
2022-08-14T02:28:56.677Z,81.25
2022-08-14T02:29:59.283Z,81.54
2022-08-14T02:30:38.220Z,81.92
2022-08-14T02:31:42.437Z,81.88
2022-08-14T02:32:37.593Z,81.49
2022-08-14T02:33:37.470Z,82.17
2022-08-14T02:34:37.433Z,81.97
2022-08-14T02:35:40.571Z,82.54
2022-08-14T02:37:02.584Z,82.83
2022-08-14T02:37:37.442Z,82.74
2022-08-14T02:38:37.257Z,83.03
2022-08-14T02:39:37.471Z,83.12
2022-08-14T02:40:37.172Z,83.03
2022-08-14T02:41:39.954Z,83.12
2022-08-14T02:42:37.671Z,83.22
2022-08-14T02:43:46.287Z,83.22
2022-08-14T02:44:39.489Z,83.22
2022-08-14T02:45:38.671Z,83.50
2022-08-14T02:46:36.915Z,83.60
2022-08-14T02:47:38.842Z,83.03
2022-08-14T02:49:02.726Z,83.12
2022-08-14T02:49:36.793Z,83.12
2022-08-14T02:50:36.748Z,83.22
2022-08-14T02:51:37.024Z,82.74
2022-08-14T02:52:57.787Z,82.93
2022-08-14T02:53:37.441Z,82.45
2022-08-14T02:54:36.593Z,82.45
2022-08-14T02:55:36.533Z,82.07
2022-08-14T02:57:16.012Z,81.97
2022-08-14T02:57:40.489Z,81.97
2022-08-14T02:58:37.201Z,81.78
2022-08-14T02:59:36.363Z,82.07
2022-08-14T03:00:40.103Z,82.17
2022-08-14T03:01:43.255Z,82.45
2022-08-14T03:02:56.363Z,82.35
2022-08-14T03:03:38.755Z,82.54
2022-08-14T03:04:36.153Z,82.17
2022-08-14T03:05:36.936Z,81.97
2022-08-14T03:06:57.564Z,81.68
2022-08-14T03:07:36.020Z,81.40
2022-08-14T03:08:35.979Z,81.88
2022-08-14T03:10:25.028Z,81.88
2022-08-14T03:10:35.891Z,82.26
2022-08-14T03:11:35.865Z,82.64
2022-08-14T03:12:35.810Z,83.03
2022-08-14T03:13:35.766Z,83.12
2022-08-14T03:14:35.721Z,83.65
2022-08-14T03:15:35.677Z,83.31
2022-08-14T03:16:35.653Z,83.31
2022-08-14T03:17:41.236Z,83.03
2022-08-14T03:18:35.555Z,83.75
2022-08-14T03:19:35.512Z,83.79
2022-08-14T03:20:35.464Z,83.60
2022-08-14T03:21:35.434Z,83.60
2022-08-14T03:22:35.396Z,83.89
2022-08-14T03:23:36.297Z,83.89
2022-08-14T03:24:35.296Z,83.69
2022-08-14T03:25:37.821Z,83.65
2022-08-14T03:26:35.225Z,83.46
2022-08-14T03:27:48.206Z,83.69
2022-08-14T03:28:36.614Z,83.56
2022-08-14T03:29:35.079Z,83.84
2022-08-14T03:30:39.834Z,83.46
2022-08-14T03:31:35.005Z,83.75
2022-08-14T03:32:34.950Z,83.79
2022-08-14T03:33:38.324Z,83.89
2022-08-14T03:34:48.063Z,84.46
2022-08-14T03:35:40.385Z,83.94
2022-08-14T03:37:28.796Z,84.70
2022-08-14T03:39:06.368Z,84.65
2022-08-14T03:39:13.037Z,84.32
2022-08-14T03:39:34.671Z,84.80
2022-08-14T03:40:34.608Z,84.89
2022-08-14T03:41:34.569Z,84.70
2022-08-14T03:42:36.678Z,85.13
2022-08-14T03:43:34.482Z,84.94
2022-08-14T03:45:18.475Z,85.18
2022-08-14T03:45:35.485Z,85.13
2022-08-14T03:46:38.810Z,84.99
2022-08-14T03:47:55.712Z,85.09
2022-08-14T03:48:40.355Z,85.18
2022-08-14T03:49:34.224Z,85.18
2022-08-14T03:50:34.185Z,85.32
2022-08-14T03:51:34.142Z,84.84
2022-08-14T03:52:40.505Z,84.75
2022-08-14T03:53:34.954Z,85.32
2022-08-14T03:54:34.015Z,85.32
2022-08-14T03:55:33.969Z,85.47
2022-08-14T03:56:33.924Z,85.22
2022-08-14T03:57:37.212Z,85.22
2022-08-14T03:58:35.355Z,85.13
2022-08-14T03:59:33.810Z,84.84
2022-08-14T04:00:43.317Z,84.32
2022-08-14T04:01:41.442Z,83.89
2022-08-14T04:02:37.339Z,84.13
2022-08-14T04:03:34.468Z,84.55
2022-08-14T04:04:33.768Z,84.42
2022-08-14T04:05:38.216Z,83.89
2022-08-14T04:06:33.496Z,85.09
2022-08-14T04:07:36.092Z,85.03
2022-08-14T04:08:33.441Z,85.18
2022-08-14T04:09:33.369Z,85.28
2022-08-14T04:10:33.341Z,85.38
2022-08-14T04:11:33.285Z,85.89
2022-08-14T04:12:33.242Z,85.85
2022-08-14T04:13:33.803Z,85.89
2022-08-14T04:14:33.179Z,85.94
2022-08-14T04:15:56.293Z,86.18
2022-08-14T04:16:33.076Z,85.94
2022-08-14T04:17:33.027Z,85.85
2022-08-14T04:18:33.835Z,86.08
2022-08-14T04:19:36.363Z,86.28
2022-08-14T04:20:32.925Z,86.66
2022-08-14T04:21:40.025Z,86.85
2022-08-14T04:22:32.815Z,85.99
2022-08-14T04:23:33.415Z,85.99
2022-08-14T04:24:38.943Z,85.47
2022-08-14T04:25:32.685Z,85.13
2022-08-14T04:26:43.270Z,84.89
2022-08-14T04:27:32.603Z,84.70
2022-08-14T04:29:09.145Z,84.32
2022-08-14T04:29:32.648Z,84.32
2022-08-14T04:30:32.780Z,84.42
2022-08-14T04:32:58.017Z,84.52
2022-08-14T04:33:02.346Z,85.09
2022-08-14T04:33:32.389Z,85.28
2022-08-14T04:34:32.310Z,84.89
2022-08-14T04:35:56.097Z,86.04
2022-08-14T04:36:32.226Z,86.04
2022-08-14T04:37:32.177Z,86.23
2022-08-14T04:38:36.471Z,86.43
2022-08-14T04:39:32.124Z,86.52
2022-08-14T04:40:32.055Z,85.75
2022-08-14T04:41:32.186Z,85.75
2022-08-14T04:42:32.003Z,86.23
2022-08-14T04:43:38.709Z,86.23
2022-08-14T04:44:36.946Z,85.85
2022-08-14T04:45:31.831Z,85.09
2022-08-14T04:46:55.519Z,84.70
2022-08-14T04:47:31.758Z,84.32
2022-08-14T04:48:43.192Z,84.42
2022-08-14T04:49:31.663Z,84.70
2022-08-14T04:50:38.026Z,84.61
2022-08-14T04:51:37.449Z,85.18
2022-08-14T04:52:31.561Z,84.99
2022-08-14T04:53:34.921Z,86.04
2022-08-14T04:54:31.445Z,85.94
2022-08-14T04:55:31.405Z,85.85
2022-08-14T04:56:34.572Z,86.04
2022-08-14T04:57:31.314Z,86.04
2022-08-14T04:58:32.938Z,86.04
2022-08-14T04:59:31.231Z,86.80
2022-08-14T05:00:31.190Z,86.04
2022-08-14T05:01:39.609Z,86.80
2022-08-14T05:02:31.124Z,87.38
2022-08-14T05:03:31.064Z,87.29
2022-08-14T05:04:31.042Z,87.29
2022-08-14T05:05:32.329Z,86.80
2022-08-14T05:06:38.482Z,86.43
2022-08-14T05:07:46.465Z,86.61
2022-08-14T05:08:32.122Z,85.57
2022-08-14T05:09:30.830Z,85.75
2022-08-14T05:10:32.151Z,85.89
2022-08-14T05:11:30.721Z,85.13
2022-08-14T05:13:24.526Z,85.18
2022-08-14T05:13:38.368Z,85.32
2022-08-14T05:14:43.101Z,84.61
2022-08-14T05:15:32.162Z,84.75
2022-08-14T05:16:30.508Z,84.75
2022-08-14T05:17:43.572Z,84.84
2022-08-14T05:19:17.239Z,84.65
2022-08-14T05:19:31.957Z,84.65
2022-08-14T05:21:04.547Z,84.75
2022-08-14T05:22:00.606Z,85.13
2022-08-14T05:22:30.249Z,85.32
2022-08-14T05:23:30.202Z,85.03
2022-08-14T05:24:30.161Z,85.41
2022-08-14T05:25:30.715Z,84.55
2022-08-14T05:26:30.089Z,84.84
2022-08-14T05:27:30.987Z,84.75
2022-08-14T05:28:29.993Z,84.75
2022-08-14T05:29:29.951Z,85.03
2022-08-14T05:30:29.909Z,84.75
2022-08-14T05:31:39.338Z,84.65
2022-08-14T05:32:29.826Z,84.59
2022-08-14T05:33:30.134Z,84.31
2022-08-14T05:34:31.646Z,84.41
2022-08-14T05:35:29.705Z,84.41
2022-08-14T05:36:29.649Z,84.59
2022-08-14T05:37:30.107Z,84.41
2022-08-14T05:38:31.180Z,83.83
2022-08-14T05:39:29.558Z,84.59
2022-08-14T05:40:29.498Z,84.31
2022-08-14T05:41:52.914Z,84.22
2022-08-14T05:42:32.102Z,83.93
2022-08-14T05:43:40.879Z,84.16
2022-08-14T05:44:30.884Z,84.06
2022-08-14T05:45:29.271Z,84.45
2022-08-14T05:46:29.226Z,84.35
2022-08-14T05:47:33.901Z,84.16
2022-08-14T05:48:33.445Z,84.26
2022-08-14T05:49:33.242Z,84.45
2022-08-14T05:50:29.251Z,83.68
2022-08-14T05:51:29.045Z,84.06
2022-08-14T05:52:39.048Z,83.97
2022-08-14T05:53:28.926Z,83.78
2022-08-14T05:54:35.275Z,83.78
2022-08-14T05:55:28.846Z,83.49
2022-08-14T05:56:29.166Z,83.97
2022-08-14T05:57:28.793Z,83.68
2022-08-14T05:58:33.817Z,84.11
2022-08-14T05:59:34.990Z,83.87
2022-08-14T06:03:47.740Z,82.38
2022-08-14T06:04:47.370Z,82.00
2022-08-14T06:05:47.367Z,82.57
2022-08-14T06:06:47.276Z,82.67
2022-08-14T06:07:47.450Z,82.76
2022-08-14T06:08:47.461Z,82.38
2022-08-14T06:09:51.099Z,82.48
2022-08-14T06:10:47.267Z,83.25
2022-08-14T06:11:49.864Z,84.01
2022-08-14T06:12:56.727Z,84.20
2022-08-14T06:13:46.970Z,83.82
2022-08-14T06:14:47.006Z,84.01
2022-08-14T06:15:47.060Z,83.63
2022-08-14T06:16:47.013Z,83.92
2022-08-14T06:17:47.131Z,83.72
2022-08-14T06:18:46.769Z,83.63
2022-08-14T06:19:46.716Z,83.29
2022-08-14T06:20:46.834Z,82.42
2022-08-14T06:21:46.660Z,81.66
2022-08-14T06:22:46.647Z,81.66
2022-08-14T06:23:48.941Z,82.23
2022-08-14T06:24:46.816Z,82.04
2022-08-14T06:25:52.729Z,81.75
2022-08-14T06:26:54.233Z,81.22
2022-08-14T06:27:46.379Z,81.89
2022-08-14T06:28:47.609Z,81.31
2022-08-14T06:29:46.298Z,80.74
2022-08-14T06:30:47.291Z,81.07
2022-08-14T06:32:00.145Z,80.11
2022-08-14T06:32:46.407Z,80.30
2022-08-14T06:35:04.644Z,79.24
2022-08-14T06:35:09.738Z,78.67
2022-08-14T06:35:46.667Z,78.52
2022-08-14T06:36:46.302Z,77.84
2022-08-14T06:37:46.931Z,77.36
2022-08-14T06:38:45.921Z,77.46
2022-08-14T06:39:46.141Z,77.01
2022-08-14T06:40:45.981Z,76.15
2022-08-14T06:41:58.623Z,75.96
2022-08-14T06:42:47.294Z,75.48
2022-08-14T06:43:45.873Z,75.48
2022-08-14T06:44:45.670Z,75.00
2022-08-14T06:45:53.942Z,74.52
2022-08-14T06:46:49.425Z,74.17
2022-08-14T06:47:45.700Z,73.50
2022-08-14T06:48:45.510Z,73.21
2022-08-14T06:49:56.061Z,72.73
2022-08-14T06:50:45.447Z,72.54
2022-08-14T06:51:45.408Z,71.81
2022-08-14T06:52:50.391Z,71.23
2022-08-14T06:53:45.565Z,71.23
2022-08-14T06:54:45.274Z,70.56
2022-08-14T06:55:57.902Z,70.07
2022-08-14T06:56:54.227Z,69.98
2022-08-14T06:57:45.410Z,70.11
2022-08-14T06:58:45.331Z,69.73
2022-08-14T06:59:45.073Z,70.11
2022-08-14T07:00:45.175Z,68.86
2022-08-14T07:01:44.995Z,69.15
2022-08-14T07:02:45.071Z,69.28
2022-08-14T07:03:44.919Z,69.38
2022-08-14T07:04:46.021Z,69.18
2022-08-14T07:05:55.819Z,68.99
2022-08-14T07:06:45.632Z,68.60
2022-08-14T07:07:45.023Z,68.60
2022-08-14T07:08:44.828Z,68.13
2022-08-14T07:09:50.579Z,68.03
2022-08-14T07:10:44.845Z,68.06
2022-08-14T07:11:44.580Z,67.68
2022-08-14T07:13:01.128Z,67.68
2022-08-14T07:13:44.496Z,66.81
2022-08-14T07:14:44.457Z,66.65
2022-08-14T07:15:44.676Z,66.27
2022-08-14T07:16:44.377Z,65.78
2022-08-14T07:17:44.478Z,66.65
2022-08-14T07:18:44.755Z,65.63
2022-08-14T07:19:44.253Z,64.86
2022-08-14T07:20:44.204Z,63.89
2022-08-14T07:21:44.202Z,64.08
2022-08-14T07:22:49.987Z,63.98
2022-08-14T07:23:44.389Z,63.89
2022-08-14T07:24:44.219Z,64.21
2022-08-14T07:25:44.344Z,63.54
2022-08-14T07:26:44.135Z,62.76
2022-08-14T07:27:43.986Z,62.66
2022-08-14T07:28:44.175Z,62.70
2022-08-14T07:29:43.851Z,62.22
2022-08-14T07:30:50.915Z,61.06
2022-08-14T07:31:43.768Z,60.96
2022-08-14T07:32:52.056Z,60.00
2022-08-14T07:33:45.555Z,60.38
2022-08-14T07:34:43.650Z,60.28
2022-08-14T07:35:58.238Z,60.31
2022-08-14T07:36:58.082Z,59.83
2022-08-14T07:37:43.535Z,60.13
2022-08-14T07:38:43.813Z,58.87
2022-08-14T07:39:44.120Z,59.38
2022-08-14T07:40:43.621Z,59.58
2022-08-14T07:41:43.675Z,59.28
2022-08-14T07:42:43.513Z,58.22
2022-08-14T07:43:44.164Z,58.42
2022-08-14T07:44:46.233Z,57.74
2022-08-14T07:45:43.454Z,57.16
2022-08-14T07:46:43.179Z,56.90
2022-08-14T07:47:43.154Z,56.58
2022-08-14T07:48:43.104Z,56.90
2022-08-14T07:49:43.543Z,57.09
2022-08-14T07:50:43.027Z,56.99
2022-08-14T07:51:43.185Z,56.32
2022-08-14T07:52:43.117Z,55.65
2022-08-14T07:53:42.911Z,55.35
2022-08-14T07:54:43.003Z,55.96
2022-08-14T07:55:43.017Z,55.47
2022-08-14T07:56:48.338Z,55.47
2022-08-14T07:57:43.028Z,54.71
2022-08-14T07:58:51.610Z,54.80
2022-08-14T07:59:44.535Z,54.71
2022-08-14T08:00:42.843Z,54.51
2022-08-14T08:01:51.105Z,54.41
2022-08-14T08:02:42.599Z,54.73
2022-08-14T08:03:42.891Z,54.15
2022-08-14T08:04:42.485Z,54.25
2022-08-14T08:05:42.576Z,54.57
2022-08-14T08:06:42.410Z,54.17
2022-08-14T08:07:42.484Z,53.79
2022-08-14T08:08:42.365Z,53.99
2022-08-14T08:09:45.915Z,53.99
2022-08-14T08:10:57.101Z,52.63
2022-08-14T08:11:42.238Z,52.56
2022-08-14T08:12:42.522Z,52.46
2022-08-14T08:13:42.140Z,52.27
2022-08-14T08:14:56.037Z,52.00
2022-08-14T08:15:42.064Z,51.42
2022-08-14T08:16:42.029Z,51.13
2022-08-14T08:17:42.675Z,51.23
2022-08-14T08:18:41.960Z,51.25
2022-08-14T08:19:42.370Z,49.99
2022-08-14T08:20:41.875Z,49.82
2022-08-14T08:21:43.902Z,49.00
2022-08-14T08:22:43.354Z,47.86
2022-08-14T08:23:50.989Z,46.64
2022-08-14T08:24:41.814Z,45.04
2022-08-14T08:25:41.806Z,43.43
2022-08-14T08:26:41.657Z,42.79
2022-08-14T08:27:44.582Z,41.54
2022-08-14T08:28:41.581Z,40.01
2022-08-14T08:29:41.625Z,38.87
2022-08-14T08:30:49.251Z,38.42
2022-08-14T08:31:43.160Z,37.26
2022-08-14T08:32:42.989Z,36.79
2022-08-14T08:33:41.448Z,36.32
2022-08-14T08:34:41.355Z,35.53
2022-08-14T08:35:47.055Z,34.96
2022-08-14T08:36:41.302Z,34.10
2022-08-14T08:37:43.664Z,33.51
2022-08-14T08:39:14.880Z,33.70
2022-08-14T08:40:01.454Z,33.53
2022-08-14T08:40:42.381Z,32.35
2022-08-14T08:41:41.298Z,32.25
2022-08-14T08:42:44.852Z,32.06
2022-08-14T08:43:46.170Z,31.96
2022-08-14T08:44:41.124Z,31.57
2022-08-14T08:45:40.971Z,31.38
2022-08-14T08:46:41.147Z,31.79
2022-08-14T08:47:40.895Z,30.73
2022-08-14T08:48:50.132Z,30.53
2022-08-14T08:49:42.338Z,29.48
2022-08-14T08:50:42.639Z,29.19
2022-08-14T08:51:42.935Z,29.58
2022-08-14T08:52:41.029Z,29.00
2022-08-14T08:53:40.874Z,28.91
2022-08-14T08:54:40.677Z,28.61
2022-08-14T08:55:40.818Z,28.63
2022-08-14T08:56:40.656Z,28.52
2022-08-14T08:57:40.698Z,28.42
2022-08-14T08:58:40.523Z,27.44
2022-08-14T08:59:42.141Z,27.74
2022-08-14T09:00:40.506Z,27.94
2022-08-14T09:01:40.425Z,28.03
2022-08-14T09:02:40.423Z,27.94
2022-08-14T09:03:41.076Z,27.75
2022-08-14T09:04:45.416Z,27.56
2022-08-14T09:05:40.290Z,27.54
2022-08-14T09:07:00.118Z,27.44
2022-08-14T09:07:40.226Z,27.84
2022-08-14T09:08:40.236Z,27.54
2022-08-14T09:09:54.215Z,27.94
2022-08-14T09:10:40.212Z,27.54
2022-08-14T09:11:40.088Z,28.13
2022-08-14T09:12:40.294Z,28.05
2022-08-14T09:13:40.041Z,27.75
2022-08-14T09:14:40.252Z,27.56
2022-08-14T09:15:42.663Z,27.75
2022-08-14T09:16:40.019Z,27.47
2022-08-14T09:17:41.200Z,27.08
2022-08-14T09:18:39.872Z,26.50
2022-08-14T09:19:40.088Z,26.61
2022-08-14T09:20:39.845Z,26.12
2022-08-14T09:21:39.781Z,25.93
2022-08-14T09:22:47.461Z,25.14
2022-08-14T09:24:26.799Z,25.55
2022-08-14T09:24:44.022Z,25.35
2022-08-14T09:25:59.633Z,25.26
2022-08-14T09:26:49.552Z,25.27
2022-08-14T09:27:39.852Z,25.27
2022-08-14T09:28:39.550Z,25.15
2022-08-14T09:29:39.524Z,25.05
2022-08-14T09:30:39.489Z,24.86
2022-08-14T09:31:42.931Z,25.35
2022-08-14T09:33:09.287Z,25.35
2022-08-14T09:33:43.045Z,25.34
2022-08-14T09:34:39.368Z,25.14
2022-08-14T09:35:39.341Z,25.34
2022-08-14T09:36:39.307Z,25.24
2022-08-14T09:37:39.289Z,25.63
2022-08-14T09:38:40.576Z,25.44
2022-08-14T09:39:39.243Z,25.34
2022-08-14T09:40:39.186Z,25.54
2022-08-14T09:42:17.332Z,25.63
2022-08-14T09:42:45.251Z,25.54
2022-08-14T09:43:39.112Z,25.73
2022-08-14T09:44:39.089Z,26.03
2022-08-14T09:45:39.989Z,26.02
2022-08-14T09:46:39.006Z,26.32
2022-08-14T09:47:38.976Z,26.32
2022-08-14T09:48:38.945Z,25.55
2022-08-14T09:49:40.603Z,25.65
2022-08-14T09:50:38.903Z,25.55
2022-08-14T09:51:44.991Z,25.93
2022-08-14T09:52:38.825Z,26.42
2022-08-14T09:54:17.725Z,26.21
2022-08-14T09:54:38.763Z,26.81
2022-08-14T09:55:41.391Z,26.61
2022-08-14T09:56:38.731Z,25.13
2022-08-14T09:57:38.679Z,23.85
2022-08-14T09:58:38.647Z,23.65
2022-08-14T09:59:38.622Z,23.36
2022-08-14T10:00:38.583Z,23.16
2022-08-14T10:01:38.561Z,23.46
2022-08-14T10:02:38.590Z,23.55
2022-08-14T10:03:38.495Z,23.95
2022-08-14T10:04:42.285Z,23.75
2022-08-14T10:05:39.388Z,24.06
2022-08-14T10:06:38.404Z,23.87
2022-08-14T10:07:41.168Z,23.68
2022-08-14T10:08:38.373Z,22.89
2022-08-14T10:09:39.361Z,22.01
2022-08-14T10:10:38.288Z,22.01
2022-08-14T10:11:38.261Z,23.21
2022-08-14T10:12:38.232Z,23.00
2022-08-14T10:13:52.767Z,22.51
2022-08-14T10:14:38.192Z,22.80
2022-08-14T10:15:38.146Z,23.49
2022-08-14T10:16:38.120Z,22.81
2022-08-14T10:17:39.000Z,22.81
2022-08-14T10:18:38.058Z,22.62
2022-08-14T10:19:38.035Z,22.73
2022-08-14T10:20:40.197Z,21.94
2022-08-14T10:21:38.778Z,21.94
2022-08-14T10:23:13.222Z,22.24
2022-08-14T10:23:37.912Z,22.34
2022-08-14T10:24:37.891Z,22.04
2022-08-14T10:25:37.856Z,23.22
2022-08-14T10:26:37.846Z,22.14
2022-08-14T10:27:37.816Z,22.83
2022-08-14T10:28:51.429Z,21.93
2022-08-14T10:29:37.744Z,22.61
2022-08-14T10:30:37.719Z,22.89
2022-08-14T10:31:44.758Z,22.89
2022-08-14T10:32:41.929Z,23.00
2022-08-14T10:33:37.629Z,22.82
2022-08-14T10:34:38.693Z,22.55
2022-08-14T10:35:37.578Z,21.36
2022-08-14T10:36:40.977Z,20.97
2022-08-14T10:37:37.513Z,20.76
2022-08-14T10:38:37.491Z,21.56
2022-08-14T10:39:37.484Z,21.05
2022-08-14T10:40:44.197Z,20.56
2022-08-14T10:41:46.695Z,21.45
2022-08-14T10:42:37.379Z,21.05
2022-08-14T10:43:37.349Z,21.45
2022-08-14T10:44:37.324Z,21.72
2022-08-14T10:45:46.348Z,22.02
2022-08-14T10:47:39.943Z,22.01
2022-08-14T10:48:06.954Z,21.89
2022-08-14T10:48:44.876Z,22.67
2022-08-14T10:49:37.185Z,22.58
2022-08-14T10:50:37.155Z,23.25
2022-08-14T10:51:39.857Z,23.04
2022-08-14T10:52:37.098Z,23.43
2022-08-14T10:53:37.085Z,22.74
2022-08-14T10:54:40.009Z,23.41
2022-08-14T10:55:38.384Z,23.71
2022-08-14T10:56:36.981Z,23.68
2022-08-14T10:57:36.950Z,24.76
2022-08-14T10:58:36.942Z,25.17
2022-08-14T10:59:38.179Z,25.34
2022-08-14T11:00:36.863Z,25.34
2022-08-14T11:01:38.413Z,25.54
2022-08-14T11:02:50.244Z,26.01
2022-08-14T11:03:56.137Z,26.98
2022-08-14T11:04:37.610Z,26.89
2022-08-14T11:05:36.715Z,27.56
2022-08-14T11:06:36.700Z,27.75
2022-08-14T11:07:36.649Z,27.55
2022-08-14T11:08:36.619Z,27.73
2022-08-14T11:09:36.594Z,28.39
2022-08-14T11:10:36.561Z,28.58
2022-08-14T11:11:37.327Z,28.86
2022-08-14T11:12:40.556Z,29.07
2022-08-14T11:13:36.474Z,29.55
2022-08-14T11:14:36.437Z,29.85
2022-08-14T11:15:36.406Z,29.95
2022-08-14T11:16:38.241Z,29.75
2022-08-14T11:17:36.342Z,30.23
2022-08-14T11:18:40.001Z,29.84
2022-08-14T11:19:36.280Z,29.14
2022-08-14T11:20:36.250Z,29.34
2022-08-14T11:21:36.213Z,29.71
2022-08-14T11:22:52.764Z,29.71
2022-08-14T11:23:37.806Z,30.58
2022-08-14T11:24:50.517Z,30.98
2022-08-14T11:25:41.392Z,31.28
2022-08-14T11:26:36.168Z,30.41
2022-08-14T11:27:36.045Z,30.22
2022-08-14T11:28:47.381Z,29.63
2022-08-14T11:29:36.209Z,29.52
2022-08-14T11:30:52.322Z,29.71
2022-08-14T11:31:39.052Z,30.10
2022-08-14T11:32:35.874Z,29.71
2022-08-14T11:33:35.847Z,29.71
2022-08-14T11:34:35.791Z,29.61
2022-08-14T11:35:44.226Z,29.52
2022-08-14T11:37:09.529Z,29.61
2022-08-14T11:37:40.705Z,29.34
2022-08-14T11:38:35.664Z,29.44
2022-08-14T11:39:37.150Z,28.86
2022-08-14T11:40:35.595Z,29.35
2022-08-14T11:41:37.313Z,28.96
2022-08-14T11:42:57.621Z,28.67
2022-08-14T11:43:35.498Z,28.38
2022-08-14T11:44:45.642Z,28.28
2022-08-14T11:45:36.971Z,28.47
2022-08-14T11:46:37.438Z,28.26
2022-08-14T11:47:43.834Z,28.64
2022-08-14T11:49:02.082Z,28.82
2022-08-14T11:49:35.302Z,29.50
2022-08-14T11:50:37.294Z,29.20
2022-08-14T11:51:50.849Z,29.39
2022-08-14T11:52:35.218Z,29.79
2022-08-14T11:53:35.170Z,30.08
2022-08-14T11:54:35.373Z,29.98
2022-08-14T11:55:35.111Z,30.06
2022-08-14T11:56:35.087Z,30.35
2022-08-14T11:57:35.039Z,30.45
2022-08-14T11:58:35.016Z,30.65
2022-08-14T11:59:34.974Z,30.55
2022-08-14T12:00:39.521Z,30.26
2022-08-14T12:01:40.960Z,30.55
2022-08-14T12:03:01.213Z,30.45
2022-08-14T12:03:45.985Z,30.65
2022-08-14T12:04:34.840Z,30.94
2022-08-14T12:05:35.998Z,31.13
2022-08-14T12:06:35.916Z,31.23
2022-08-14T12:07:34.809Z,31.33
2022-08-14T12:08:34.676Z,31.43
2022-08-14T12:09:34.677Z,31.33
2022-08-14T12:10:37.250Z,30.86
2022-08-14T12:11:34.571Z,31.15
2022-08-14T12:12:35.704Z,31.60
2022-08-14T12:13:34.793Z,31.80
2022-08-14T12:14:35.705Z,32.37
2022-08-14T12:15:34.463Z,32.37
2022-08-14T12:16:34.430Z,32.47
2022-08-14T12:17:38.233Z,32.16
2022-08-14T12:18:34.339Z,33.43
2022-08-14T12:19:35.062Z,32.84
2022-08-14T12:20:34.271Z,32.84
2022-08-14T12:21:34.244Z,32.55
2022-08-14T12:22:34.218Z,32.94
2022-08-14T12:23:34.168Z,33.22
2022-08-14T12:24:36.618Z,33.43
2022-08-14T12:25:34.719Z,33.70
2022-08-14T12:26:40.612Z,33.12
2022-08-14T12:27:34.053Z,33.31
2022-08-14T12:29:00.072Z,33.51
2022-08-14T12:29:34.867Z,33.41
2022-08-14T12:30:39.820Z,33.12
2022-08-14T12:31:36.290Z,33.22
2022-08-14T12:32:33.860Z,33.59
2022-08-14T12:33:34.218Z,33.78
2022-08-14T12:34:33.817Z,34.27
2022-08-14T12:35:33.757Z,34.17
2022-08-14T12:36:33.726Z,34.88
2022-08-14T12:37:33.687Z,34.00
2022-08-14T12:38:33.656Z,34.68
2022-08-14T12:39:39.803Z,34.68
2022-08-14T12:40:33.598Z,34.11
2022-08-14T12:41:34.495Z,34.50
2022-08-14T12:42:34.028Z,34.69
2022-08-14T12:43:33.481Z,34.69
2022-08-14T12:44:33.443Z,34.79
2022-08-14T12:45:33.481Z,34.79
2022-08-14T12:46:33.380Z,34.52
2022-08-14T12:47:33.345Z,34.12
2022-08-14T12:48:33.311Z,34.50
2022-08-14T12:49:33.278Z,34.69
2022-08-14T12:50:33.237Z,34.71
2022-08-14T12:51:33.218Z,35.12
2022-08-14T12:52:43.112Z,35.51
2022-08-14T12:53:38.137Z,35.31
2022-08-14T12:54:33.130Z,34.92
2022-08-14T12:56:22.308Z,34.94